sensor_id;sensor_type;location;lat;lon;timestamp;temperature;humidity
25973;DHT22;13765;51.166;4.466;2023-07-29T00:01:00;19.90;99.90
25973;DHT22;13765;51.166;4.466;2023-07-29T00:03:29;19.90;99.90
25973;DHT22;13765;51.166;4.466;2023-07-29T00:05:58;19.70;99.90
25973;DHT22;13765;51.166;4.466;2023-07-29T00:08:26;19.70;99.90
25973;DHT22;13765;51.166;4.466;2023-07-29T00:10:51;19.60;99.90
25973;DHT22;13765;51.166;4.466;2023-07-29T00:13:17;19.70;99.90
25973;DHT22;13765;51.166;4.466;2023-07-29T00:15:48;19.70;99.90
25973;DHT22;13765;51.166;4.466;2023-07-29T00:18:13;19.80;99.90
25973;DHT22;13765;51.166;4.466;2023-07-29T00:20:41;19.80;99.90
25973;DHT22;13765;51.166;4.466;2023-07-29T00:23:07;19.70;99.90
25973;DHT22;13765;51.166;4.466;2023-07-29T00:25:33;19.70;99.90
25973;DHT22;13765;51.166;4.466;2023-07-29T00:28:01;19.60;99.90
25973;DHT22;13765;51.166;4.466;2023-07-29T00:30:27;19.70;99.90
25973;DHT22;13765;51.166;4.466;2023-07-29T00:32:52;19.60;99.90
25973;DHT22;13765;51.166;4.466;2023-07-29T00:35:18;19.60;99.90
25973;DHT22;13765;51.166;4.466;2023-07-29T00:37:43;19.60;99.90
25973;DHT22;13765;51.166;4.466;2023-07-29T00:40:21;19.40;99.90
25973;DHT22;13765;51.166;4.466;2023-07-29T00:42:48;19.50;99.90
25973;DHT22;13765;51.166;4.466;2023-07-29T00:45:14;19.50;99.90
25973;DHT22;13765;51.166;4.466;2023-07-29T00:47:42;19.60;99.90
25973;DHT22;13765;51.166;4.466;2023-07-29T00:50:09;19.50;99.90
25973;DHT22;13765;51.166;4.466;2023-07-29T00:52:36;19.50;99.90
25973;DHT22;13765;51.166;4.466;2023-07-29T00:55:03;19.50;99.90
25973;DHT22;13765;51.166;4.466;2023-07-29T00:57:30;19.40;99.90
25973;DHT22;13765;51.166;4.466;2023-07-29T00:59:59;19.50;99.90
25973;DHT22;13765;51.166;4.466;2023-07-29T01:02:30;19.30;99.90
25973;DHT22;13765;51.166;4.466;2023-07-29T01:05:01;19.30;99.90
25973;DHT22;13765;51.166;4.466;2023-07-29T01:13:06;19.20;99.90
25973;DHT22;13765;51.166;4.466;2023-07-29T01:15:54;19.10;99.90
25973;DHT22;13765;51.166;4.466;2023-07-29T01:18:32;19.10;99.90
25973;DHT22;13765;51.166;4.466;2023-07-29T01:21:02;19.10;99.90
25973;DHT22;13765;51.166;4.466;2023-07-29T01:23:30;19.10;99.90
25973;DHT22;13765;51.166;4.466;2023-07-29T01:25:56;19.10;99.90
25973;DHT22;13765;51.166;4.466;2023-07-29T01:28:25;19.00;99.90
25973;DHT22;13765;51.166;4.466;2023-07-29T01:30:56;19.00;99.90
25973;DHT22;13765;51.166;4.466;2023-07-29T01:33:26;18.90;99.90
25973;DHT22;13765;51.166;4.466;2023-07-29T01:36:01;18.90;99.90
25973;DHT22;13765;51.166;4.466;2023-07-29T01:38:35;18.90;99.90
25973;DHT22;13765;51.166;4.466;2023-07-29T01:41:07;18.90;99.90
25973;DHT22;13765;51.166;4.466;2023-07-29T01:43:33;18.90;99.90
25973;DHT22;13765;51.166;4.466;2023-07-29T01:46:02;19.00;99.90
25973;DHT22;13765;51.166;4.466;2023-07-29T01:48:28;18.90;99.90
25973;DHT22;13765;51.166;4.466;2023-07-29T01:50:58;18.90;99.90
25973;DHT22;13765;51.166;4.466;2023-07-29T01:53:24;18.90;99.90
25973;DHT22;13765;51.166;4.466;2023-07-29T01:55:49;18.70;99.90
25973;DHT22;13765;51.166;4.466;2023-07-29T01:58:15;18.70;99.90
25973;DHT22;13765;51.166;4.466;2023-07-29T02:00:43;18.70;99.90
25973;DHT22;13765;51.166;4.466;2023-07-29T02:03:09;18.80;99.90
25973;DHT22;13765;51.166;4.466;2023-07-29T02:05:34;18.80;99.90
25973;DHT22;13765;51.166;4.466;2023-07-29T02:08:00;18.70;99.90
25973;DHT22;13765;51.166;4.466;2023-07-29T02:10:26;18.60;99.90
25973;DHT22;13765;51.166;4.466;2023-07-29T02:12:51;18.50;99.90
25973;DHT22;13765;51.166;4.466;2023-07-29T02:15:19;18.50;99.90
25973;DHT22;13765;51.166;4.466;2023-07-29T02:17:45;18.40;99.90
25973;DHT22;13765;51.166;4.466;2023-07-29T02:20:11;18.40;99.90
25973;DHT22;13765;51.166;4.466;2023-07-29T02:22:36;18.40;99.90
25973;DHT22;13765;51.166;4.466;2023-07-29T02:25:05;18.40;99.90
25973;DHT22;13765;51.166;4.466;2023-07-29T02:27:33;18.40;99.90
25973;DHT22;13765;51.166;4.466;2023-07-29T02:29:59;18.40;99.90
25973;DHT22;13765;51.166;4.466;2023-07-29T02:32:25;18.30;99.90
25973;DHT22;13765;51.166;4.466;2023-07-29T02:34:52;18.20;99.90
25973;DHT22;13765;51.166;4.466;2023-07-29T02:37:18;18.20;99.90
25973;DHT22;13765;51.166;4.466;2023-07-29T02:39:44;18.20;99.90
25973;DHT22;13765;51.166;4.466;2023-07-29T02:42:10;18.20;99.90
25973;DHT22;13765;51.166;4.466;2023-07-29T02:44:36;18.20;99.90
25973;DHT22;13765;51.166;4.466;2023-07-29T02:47:01;18.20;99.90
25973;DHT22;13765;51.166;4.466;2023-07-29T02:49:30;18.10;99.90
25973;DHT22;13765;51.166;4.466;2023-07-29T02:51:55;18.10;99.90
25973;DHT22;13765;51.166;4.466;2023-07-29T02:54:24;18.10;99.90
25973;DHT22;13765;51.166;4.466;2023-07-29T02:56:53;18.10;99.90
25973;DHT22;13765;51.166;4.466;2023-07-29T02:59:19;18.10;99.90
25973;DHT22;13765;51.166;4.466;2023-07-29T03:01:45;18.10;99.90
25973;DHT22;13765;51.166;4.466;2023-07-29T03:04:13;18.10;99.90
25973;DHT22;13765;51.166;4.466;2023-07-29T03:06:39;18.00;99.90
25973;DHT22;13765;51.166;4.466;2023-07-29T03:09:05;18.00;99.90
25973;DHT22;13765;51.166;4.466;2023-07-29T03:11:32;18.00;99.90
25973;DHT22;13765;51.166;4.466;2023-07-29T03:14:00;18.10;99.90
25973;DHT22;13765;51.166;4.466;2023-07-29T03:16:26;18.10;99.90
25973;DHT22;13765;51.166;4.466;2023-07-29T03:18:51;18.00;99.90
25973;DHT22;13765;51.166;4.466;2023-07-29T03:21:17;18.10;99.90
25973;DHT22;13765;51.166;4.466;2023-07-29T03:23:43;18.10;99.90
25973;DHT22;13765;51.166;4.466;2023-07-29T03:26:10;18.10;99.90
25973;DHT22;13765;51.166;4.466;2023-07-29T03:28:41;18.10;99.90
25973;DHT22;13765;51.166;4.466;2023-07-29T03:31:10;18.00;99.90
25973;DHT22;13765;51.166;4.466;2023-07-29T03:33:36;18.00;99.90
25973;DHT22;13765;51.166;4.466;2023-07-29T03:36:02;18.00;99.90
25973;DHT22;13765;51.166;4.466;2023-07-29T03:38:27;18.00;99.90
25973;DHT22;13765;51.166;4.466;2023-07-29T03:40:53;18.00;99.90
25973;DHT22;13765;51.166;4.466;2023-07-29T03:43:19;18.00;99.90
25973;DHT22;13765;51.166;4.466;2023-07-29T03:45:47;17.90;99.90
25973;DHT22;13765;51.166;4.466;2023-07-29T03:48:12;17.90;99.90
25973;DHT22;13765;51.166;4.466;2023-07-29T03:50:38;17.90;99.90
25973;DHT22;13765;51.166;4.466;2023-07-29T03:53:04;18.00;99.90
25973;DHT22;13765;51.166;4.466;2023-07-29T03:55:31;18.00;99.90
25973;DHT22;13765;51.166;4.466;2023-07-29T03:58:02;18.10;99.90
25973;DHT22;13765;51.166;4.466;2023-07-29T04:00:28;18.00;99.90
25973;DHT22;13765;51.166;4.466;2023-07-29T04:02:54;17.90;99.90
25973;DHT22;13765;51.166;4.466;2023-07-29T04:05:19;17.90;99.90
25973;DHT22;13765;51.166;4.466;2023-07-29T04:07:45;17.90;99.90
25973;DHT22;13765;51.166;4.466;2023-07-29T04:10:14;17.90;99.90
25973;DHT22;13765;51.166;4.466;2023-07-29T04:12:39;17.90;99.90
25973;DHT22;13765;51.166;4.466;2023-07-29T04:15:05;18.00;99.90
25973;DHT22;13765;51.166;4.466;2023-07-29T04:17:31;17.90;99.90
25973;DHT22;13765;51.166;4.466;2023-07-29T04:20:01;17.90;99.90
25973;DHT22;13765;51.166;4.466;2023-07-29T04:22:29;17.90;99.90
25973;DHT22;13765;51.166;4.466;2023-07-29T04:24:55;17.70;99.90
25973;DHT22;13765;51.166;4.466;2023-07-29T04:27:23;17.80;99.90
25973;DHT22;13765;51.166;4.466;2023-07-29T04:29:48;17.80;99.90
25973;DHT22;13765;51.166;4.466;2023-07-29T04:32:16;17.70;99.90
25973;DHT22;13765;51.166;4.466;2023-07-29T04:34:42;17.80;99.90
25973;DHT22;13765;51.166;4.466;2023-07-29T04:37:07;17.90;99.90
25973;DHT22;13765;51.166;4.466;2023-07-29T04:39:35;17.80;99.90
25973;DHT22;13765;51.166;4.466;2023-07-29T04:42:01;17.80;99.90
25973;DHT22;13765;51.166;4.466;2023-07-29T04:44:29;17.90;99.90
25973;DHT22;13765;51.166;4.466;2023-07-29T04:46:57;17.80;99.90
25973;DHT22;13765;51.166;4.466;2023-07-29T04:49:25;17.80;99.90
25973;DHT22;13765;51.166;4.466;2023-07-29T04:51:50;17.80;99.90
25973;DHT22;13765;51.166;4.466;2023-07-29T04:54:18;17.90;99.90
25973;DHT22;13765;51.166;4.466;2023-07-29T04:56:48;17.90;99.90
25973;DHT22;13765;51.166;4.466;2023-07-29T04:59:16;17.80;99.90
25973;DHT22;13765;51.166;4.466;2023-07-29T05:01:42;17.80;99.90
25973;DHT22;13765;51.166;4.466;2023-07-29T05:04:08;17.80;99.90
25973;DHT22;13765;51.166;4.466;2023-07-29T05:06:36;17.80;99.90
25973;DHT22;13765;51.166;4.466;2023-07-29T05:09:19;17.80;99.90
25973;DHT22;13765;51.166;4.466;2023-07-29T05:11:45;17.80;99.90
25973;DHT22;13765;51.166;4.466;2023-07-29T05:14:15;17.90;99.90
25973;DHT22;13765;51.166;4.466;2023-07-29T05:16:41;18.00;99.90
25973;DHT22;13765;51.166;4.466;2023-07-29T05:19:07;18.10;99.90
25973;DHT22;13765;51.166;4.466;2023-07-29T05:21:32;18.30;99.90
25973;DHT22;13765;51.166;4.466;2023-07-29T05:24:00;18.30;99.90
25973;DHT22;13765;51.166;4.466;2023-07-29T05:26:28;18.40;99.90
25973;DHT22;13765;51.166;4.466;2023-07-29T05:28:54;18.60;99.90
25973;DHT22;13765;51.166;4.466;2023-07-29T05:31:22;18.80;99.90
25973;DHT22;13765;51.166;4.466;2023-07-29T05:33:50;19.00;99.90
25973;DHT22;13765;51.166;4.466;2023-07-29T05:36:15;18.90;99.90
25973;DHT22;13765;51.166;4.466;2023-07-29T05:38:41;18.80;99.90
25973;DHT22;13765;51.166;4.466;2023-07-29T05:41:07;18.70;99.90
25973;DHT22;13765;51.166;4.466;2023-07-29T05:43:32;18.60;99.90
25973;DHT22;13765;51.166;4.466;2023-07-29T05:45:58;18.60;99.90
25973;DHT22;13765;51.166;4.466;2023-07-29T05:48:23;18.50;99.90
25973;DHT22;13765;51.166;4.466;2023-07-29T05:50:49;18.60;99.90
25973;DHT22;13765;51.166;4.466;2023-07-29T05:53:15;18.80;99.90
25973;DHT22;13765;51.166;4.466;2023-07-29T05:55:41;19.40;99.90
25973;DHT22;13765;51.166;4.466;2023-07-29T05:58:07;19.50;99.90
25973;DHT22;13765;51.166;4.466;2023-07-29T06:00:35;19.50;99.90
25973;DHT22;13765;51.166;4.466;2023-07-29T06:03:03;19.30;99.90
25973;DHT22;13765;51.166;4.466;2023-07-29T06:05:31;19.20;99.90
25973;DHT22;13765;51.166;4.466;2023-07-29T06:07:57;19.20;99.90
25973;DHT22;13765;51.166;4.466;2023-07-29T06:10:25;19.10;99.90
25973;DHT22;13765;51.166;4.466;2023-07-29T06:12:50;19.20;99.90
25973;DHT22;13765;51.166;4.466;2023-07-29T06:15:16;19.20;99.90
25973;DHT22;13765;51.166;4.466;2023-07-29T06:17:42;19.20;99.90
25973;DHT22;13765;51.166;4.466;2023-07-29T06:20:08;19.20;99.90
25973;DHT22;13765;51.166;4.466;2023-07-29T06:22:36;19.20;99.90
25973;DHT22;13765;51.166;4.466;2023-07-29T06:25:02;19.30;99.90
25973;DHT22;13765;51.166;4.466;2023-07-29T06:27:28;19.70;99.90
25973;DHT22;13765;51.166;4.466;2023-07-29T06:29:56;20.30;99.90
25973;DHT22;13765;51.166;4.466;2023-07-29T06:32:21;21.00;99.90
25973;DHT22;13765;51.166;4.466;2023-07-29T06:34:47;21.30;99.90
25973;DHT22;13765;51.166;4.466;2023-07-29T06:37:17;21.70;99.90
25973;DHT22;13765;51.166;4.466;2023-07-29T06:39:42;22.00;99.90
25973;DHT22;13765;51.166;4.466;2023-07-29T06:42:08;22.10;99.90
25973;DHT22;13765;51.166;4.466;2023-07-29T06:44:34;22.00;99.90
25973;DHT22;13765;51.166;4.466;2023-07-29T06:46:59;21.80;99.90
25973;DHT22;13765;51.166;4.466;2023-07-29T06:49:25;21.60;99.90
25973;DHT22;13765;51.166;4.466;2023-07-29T06:51:50;21.50;99.90
25973;DHT22;13765;51.166;4.466;2023-07-29T06:54:18;21.40;99.90
25973;DHT22;13765;51.166;4.466;2023-07-29T06:56:44;21.20;99.90
25973;DHT22;13765;51.166;4.466;2023-07-29T06:59:10;21.30;99.90
25973;DHT22;13765;51.166;4.466;2023-07-29T07:01:35;21.50;99.90
25973;DHT22;13765;51.166;4.466;2023-07-29T07:04:06;21.50;99.90
25973;DHT22;13765;51.166;4.466;2023-07-29T07:06:36;21.50;99.90
25973;DHT22;13765;51.166;4.466;2023-07-29T07:09:02;21.40;99.90
25973;DHT22;13765;51.166;4.466;2023-07-29T07:11:28;21.40;99.90
25973;DHT22;13765;51.166;4.466;2023-07-29T07:13:53;21.20;99.90
25973;DHT22;13765;51.166;4.466;2023-07-29T07:16:21;21.00;99.90
25973;DHT22;13765;51.166;4.466;2023-07-29T07:18:49;21.00;99.90
25973;DHT22;13765;51.166;4.466;2023-07-29T07:21:15;21.00;99.90
25973;DHT22;13765;51.166;4.466;2023-07-29T07:23:40;21.00;99.90
25973;DHT22;13765;51.166;4.466;2023-07-29T07:26:06;20.80;99.90
25973;DHT22;13765;51.166;4.466;2023-07-29T07:28:32;20.70;99.90
25973;DHT22;13765;51.166;4.466;2023-07-29T07:30:57;20.70;99.90
25973;DHT22;13765;51.166;4.466;2023-07-29T07:33:23;20.70;99.90
25973;DHT22;13765;51.166;4.466;2023-07-29T07:35:48;20.60;99.90
25973;DHT22;13765;51.166;4.466;2023-07-29T07:38:14;20.50;99.90
25973;DHT22;13765;51.166;4.466;2023-07-29T07:40:40;20.60;99.90
25973;DHT22;13765;51.166;4.466;2023-07-29T07:43:06;20.50;99.90
25973;DHT22;13765;51.166;4.466;2023-07-29T07:45:32;20.40;99.90
25973;DHT22;13765;51.166;4.466;2023-07-29T07:47:58;20.50;99.90
25973;DHT22;13765;51.166;4.466;2023-07-29T07:50:24;20.60;99.90
25973;DHT22;13765;51.166;4.466;2023-07-29T07:52:50;20.80;99.90
25973;DHT22;13765;51.166;4.466;2023-07-29T07:55:15;20.90;99.90
25973;DHT22;13765;51.166;4.466;2023-07-29T07:57:44;20.90;99.90
25973;DHT22;13765;51.166;4.466;2023-07-29T08:00:10;21.00;99.90
25973;DHT22;13765;51.166;4.466;2023-07-29T08:02:36;21.20;99.90
25973;DHT22;13765;51.166;4.466;2023-07-29T08:05:01;21.50;99.90
25973;DHT22;13765;51.166;4.466;2023-07-29T08:07:27;21.60;99.90
25973;DHT22;13765;51.166;4.466;2023-07-29T08:09:55;21.90;99.90
25973;DHT22;13765;51.166;4.466;2023-07-29T08:12:20;22.00;99.90
25973;DHT22;13765;51.166;4.466;2023-07-29T08:14:46;22.20;99.90
25973;DHT22;13765;51.166;4.466;2023-07-29T08:17:12;22.30;99.90
25973;DHT22;13765;51.166;4.466;2023-07-29T08:19:37;22.20;99.90
25973;DHT22;13765;51.166;4.466;2023-07-29T08:22:03;22.20;99.90
25973;DHT22;13765;51.166;4.466;2023-07-29T08:24:29;22.50;99.90
25973;DHT22;13765;51.166;4.466;2023-07-29T08:26:55;22.90;99.90
25973;DHT22;13765;51.166;4.466;2023-07-29T08:29:20;23.00;99.90
25973;DHT22;13765;51.166;4.466;2023-07-29T08:31:46;23.00;99.90
25973;DHT22;13765;51.166;4.466;2023-07-29T08:34:11;23.20;99.90
25973;DHT22;13765;51.166;4.466;2023-07-29T08:36:39;23.30;99.90
25973;DHT22;13765;51.166;4.466;2023-07-29T08:39:07;23.60;99.90
25973;DHT22;13765;51.166;4.466;2023-07-29T08:44:33;23.70;99.90
25973;DHT22;13765;51.166;4.466;2023-07-29T08:46:59;23.50;99.90
25973;DHT22;13765;51.166;4.466;2023-07-29T08:49:28;23.70;99.90
25973;DHT22;13765;51.166;4.466;2023-07-29T08:51:55;23.60;99.90
25973;DHT22;13765;51.166;4.466;2023-07-29T08:54:22;23.60;99.90
25973;DHT22;13765;51.166;4.466;2023-07-29T08:56:48;23.60;99.90
25973;DHT22;13765;51.166;4.466;2023-07-29T08:59:14;23.70;99.90
25973;DHT22;13765;51.166;4.466;2023-07-29T09:01:41;23.80;99.90
25973;DHT22;13765;51.166;4.466;2023-07-29T09:04:07;23.80;99.90
25973;DHT22;13765;51.166;4.466;2023-07-29T09:06:33;23.90;99.90
25973;DHT22;13765;51.166;4.466;2023-07-29T09:09:07;24.00;99.90
25973;DHT22;13765;51.166;4.466;2023-07-29T09:11:33;24.20;99.90
25973;DHT22;13765;51.166;4.466;2023-07-29T09:13:59;24.30;99.90
25973;DHT22;13765;51.166;4.466;2023-07-29T09:16:27;24.50;99.90
25973;DHT22;13765;51.166;4.466;2023-07-29T09:18:55;24.90;99.90
25973;DHT22;13765;51.166;4.466;2023-07-29T09:21:25;25.20;99.90
25973;DHT22;13765;51.166;4.466;2023-07-29T09:23:55;25.20;99.90
25973;DHT22;13765;51.166;4.466;2023-07-29T09:26:25;25.10;99.90
25973;DHT22;13765;51.166;4.466;2023-07-29T09:28:53;24.90;99.90
25973;DHT22;13765;51.166;4.466;2023-07-29T09:31:21;25.10;99.90
25973;DHT22;13765;51.166;4.466;2023-07-29T09:33:46;25.20;99.90
25973;DHT22;13765;51.166;4.466;2023-07-29T09:36:15;25.50;99.90
25973;DHT22;13765;51.166;4.466;2023-07-29T09:38:40;25.50;99.90
25973;DHT22;13765;51.166;4.466;2023-07-29T09:41:09;25.30;99.90
25973;DHT22;13765;51.166;4.466;2023-07-29T09:43:39;25.20;99.90
25973;DHT22;13765;51.166;4.466;2023-07-29T09:46:08;24.90;99.90
25973;DHT22;13765;51.166;4.466;2023-07-29T09:48:34;24.70;99.90
25973;DHT22;13765;51.166;4.466;2023-07-29T09:51:13;24.30;99.90
25973;DHT22;13765;51.166;4.466;2023-07-29T09:53:47;24.20;99.90
25973;DHT22;13765;51.166;4.466;2023-07-29T09:56:27;24.00;99.90
25973;DHT22;13765;51.166;4.466;2023-07-29T09:58:55;23.80;99.90
25973;DHT22;13765;51.166;4.466;2023-07-29T10:01:21;23.60;99.90
25973;DHT22;13765;51.166;4.466;2023-07-29T10:03:47;23.30;99.90
25973;DHT22;13765;51.166;4.466;2023-07-29T10:06:16;23.30;99.90
25973;DHT22;13765;51.166;4.466;2023-07-29T10:08:43;23.30;99.90
25973;DHT22;13765;51.166;4.466;2023-07-29T10:11:10;23.10;99.90
25973;DHT22;13765;51.166;4.466;2023-07-29T10:13:36;23.20;99.90
25973;DHT22;13765;51.166;4.466;2023-07-29T10:16:05;23.30;99.90
25973;DHT22;13765;51.166;4.466;2023-07-29T10:18:31;23.40;99.90
25973;DHT22;13765;51.166;4.466;2023-07-29T10:20:59;23.40;99.90
25973;DHT22;13765;51.166;4.466;2023-07-29T10:23:27;23.20;99.90
25973;DHT22;13765;51.166;4.466;2023-07-29T10:26:03;23.00;99.90
25973;DHT22;13765;51.166;4.466;2023-07-29T10:28:31;23.10;99.90
25973;DHT22;13765;51.166;4.466;2023-07-29T10:30:58;23.10;99.90
25973;DHT22;13765;51.166;4.466;2023-07-29T10:33:26;23.50;99.90
25973;DHT22;13765;51.166;4.466;2023-07-29T10:35:53;23.90;99.90
25973;DHT22;13765;51.166;4.466;2023-07-29T10:38:22;24.20;99.90
25973;DHT22;13765;51.166;4.466;2023-07-29T10:40:51;24.30;99.90
25973;DHT22;13765;51.166;4.466;2023-07-29T10:45:50;24.10;99.90
25973;DHT22;13765;51.166;4.466;2023-07-29T10:48:39;24.10;99.90
25973;DHT22;13765;51.166;4.466;2023-07-29T10:54:13;24.20;99.90
25973;DHT22;13765;51.166;4.466;2023-07-29T10:56:46;24.50;99.90
25973;DHT22;13765;51.166;4.466;2023-07-29T11:01:42;24.60;99.90
25973;DHT22;13765;51.166;4.466;2023-07-29T11:07:18;25.00;99.90
25973;DHT22;13765;51.166;4.466;2023-07-29T11:15:03;24.50;99.90
25973;DHT22;13765;51.166;4.466;2023-07-29T11:17:32;23.80;99.90
25973;DHT22;13765;51.166;4.466;2023-07-29T11:20:00;23.30;99.90
25973;DHT22;13765;51.166;4.466;2023-07-29T11:22:26;23.00;99.90
25973;DHT22;13765;51.166;4.466;2023-07-29T11:24:52;22.80;99.90
25973;DHT22;13765;51.166;4.466;2023-07-29T11:27:17;22.40;99.90
25973;DHT22;13765;51.166;4.466;2023-07-29T11:29:46;22.10;99.90
25973;DHT22;13765;51.166;4.466;2023-07-29T11:32:12;22.00;99.90
25973;DHT22;13765;51.166;4.466;2023-07-29T11:34:38;21.90;99.90
25973;DHT22;13765;51.166;4.466;2023-07-29T11:37:05;21.90;99.90
25973;DHT22;13765;51.166;4.466;2023-07-29T11:39:32;21.70;99.90
25973;DHT22;13765;51.166;4.466;2023-07-29T11:42:00;21.40;99.90
25973;DHT22;13765;51.166;4.466;2023-07-29T11:44:28;21.20;99.90
25973;DHT22;13765;51.166;4.466;2023-07-29T11:46:56;21.10;99.90
25973;DHT22;13765;51.166;4.466;2023-07-29T11:49:22;21.10;99.90
25973;DHT22;13765;51.166;4.466;2023-07-29T11:51:50;21.40;99.90
25973;DHT22;13765;51.166;4.466;2023-07-29T11:54:16;21.70;99.90
25973;DHT22;13765;51.166;4.466;2023-07-29T11:56:49;22.20;99.90
25973;DHT22;13765;51.166;4.466;2023-07-29T11:59:15;22.60;99.90
25973;DHT22;13765;51.166;4.466;2023-07-29T12:01:43;22.70;99.90
25973;DHT22;13765;51.166;4.466;2023-07-29T12:04:12;22.90;99.90
25973;DHT22;13765;51.166;4.466;2023-07-29T12:06:38;23.20;99.90
25973;DHT22;13765;51.166;4.466;2023-07-29T12:09:04;23.60;99.90
25973;DHT22;13765;51.166;4.466;2023-07-29T12:11:30;24.10;99.90
25973;DHT22;13765;51.166;4.466;2023-07-29T12:13:59;24.50;99.90
25973;DHT22;13765;51.166;4.466;2023-07-29T12:16:29;24.70;99.90
25973;DHT22;13765;51.166;4.466;2023-07-29T12:19:00;24.70;99.90
25973;DHT22;13765;51.166;4.466;2023-07-29T12:21:26;24.70;99.90
25973;DHT22;13765;51.166;4.466;2023-07-29T12:23:51;24.80;99.90
25973;DHT22;13765;51.166;4.466;2023-07-29T12:26:17;24.40;99.90
25973;DHT22;13765;51.166;4.466;2023-07-29T12:28:46;24.40;99.90
25973;DHT22;13765;51.166;4.466;2023-07-29T12:31:13;24.50;99.90
25973;DHT22;13765;51.166;4.466;2023-07-29T12:33:38;25.00;99.90
25973;DHT22;13765;51.166;4.466;2023-07-29T12:36:05;25.30;99.90
25973;DHT22;13765;51.166;4.466;2023-07-29T12:38:33;25.70;99.90
25973;DHT22;13765;51.166;4.466;2023-07-29T12:41:01;25.90;99.90
25973;DHT22;13765;51.166;4.466;2023-07-29T12:43:29;25.90;99.90
25973;DHT22;13765;51.166;4.466;2023-07-29T12:45:57;25.90;99.90
25973;DHT22;13765;51.166;4.466;2023-07-29T12:48:28;25.30;99.90
25973;DHT22;13765;51.166;4.466;2023-07-29T12:50:56;25.20;99.90
25973;DHT22;13765;51.166;4.466;2023-07-29T12:53:24;25.30;99.90
25973;DHT22;13765;51.166;4.466;2023-07-29T12:55:53;25.40;99.90
25973;DHT22;13765;51.166;4.466;2023-07-29T12:58:20;25.60;99.90
25973;DHT22;13765;51.166;4.466;2023-07-29T13:00:48;25.60;99.90
25973;DHT22;13765;51.166;4.466;2023-07-29T13:03:16;25.80;99.90
25973;DHT22;13765;51.166;4.466;2023-07-29T13:05:42;26.10;99.90
25973;DHT22;13765;51.166;4.466;2023-07-29T13:08:07;26.10;99.90
25973;DHT22;13765;51.166;4.466;2023-07-29T13:10:33;26.10;99.90
25973;DHT22;13765;51.166;4.466;2023-07-29T13:13:03;26.10;99.90
25973;DHT22;13765;51.166;4.466;2023-07-29T13:15:29;26.40;99.90
25973;DHT22;13765;51.166;4.466;2023-07-29T13:17:54;26.20;99.90
25973;DHT22;13765;51.166;4.466;2023-07-29T13:20:24;26.50;99.90
25973;DHT22;13765;51.166;4.466;2023-07-29T13:22:52;26.60;99.90
25973;DHT22;13765;51.166;4.466;2023-07-29T13:25:20;26.60;99.90
25973;DHT22;13765;51.166;4.466;2023-07-29T13:27:45;26.70;99.90
25973;DHT22;13765;51.166;4.466;2023-07-29T13:30:13;26.60;99.90
25973;DHT22;13765;51.166;4.466;2023-07-29T13:32:41;26.70;99.90
25973;DHT22;13765;51.166;4.466;2023-07-29T13:35:07;26.80;99.90
25973;DHT22;13765;51.166;4.466;2023-07-29T13:37:33;26.90;99.90
25973;DHT22;13765;51.166;4.466;2023-07-29T13:39:58;26.60;99.90
25973;DHT22;13765;51.166;4.466;2023-07-29T13:42:26;26.70;99.90
25973;DHT22;13765;51.166;4.466;2023-07-29T13:44:52;26.80;99.90
25973;DHT22;13765;51.166;4.466;2023-07-29T13:47:17;27.00;99.90
25973;DHT22;13765;51.166;4.466;2023-07-29T13:49:43;27.00;99.90
25973;DHT22;13765;51.166;4.466;2023-07-29T13:52:08;26.90;99.90
25973;DHT22;13765;51.166;4.466;2023-07-29T13:54:36;26.70;99.90
25973;DHT22;13765;51.166;4.466;2023-07-29T13:57:02;27.00;99.90
25973;DHT22;13765;51.166;4.466;2023-07-29T13:59:28;27.00;99.90
25973;DHT22;13765;51.166;4.466;2023-07-29T14:01:53;27.00;99.90
25973;DHT22;13765;51.166;4.466;2023-07-29T14:04:19;26.60;99.90
25973;DHT22;13765;51.166;4.466;2023-07-29T14:06:44;26.10;99.90
25973;DHT22;13765;51.166;4.466;2023-07-29T14:09:12;25.90;99.90
25973;DHT22;13765;51.166;4.466;2023-07-29T14:11:42;26.20;99.90
25973;DHT22;13765;51.166;4.466;2023-07-29T14:14:10;26.50;99.90
25973;DHT22;13765;51.166;4.466;2023-07-29T14:16:36;26.60;99.90
25973;DHT22;13765;51.166;4.466;2023-07-29T14:19:04;26.50;99.90
25973;DHT22;13765;51.166;4.466;2023-07-29T14:21:34;26.30;99.90
25973;DHT22;13765;51.166;4.466;2023-07-29T14:24:02;26.20;99.90
25973;DHT22;13765;51.166;4.466;2023-07-29T14:26:27;26.00;99.90
25973;DHT22;13765;51.166;4.466;2023-07-29T14:28:53;25.70;99.90
25973;DHT22;13765;51.166;4.466;2023-07-29T14:31:19;25.70;99.90
25973;DHT22;13765;51.166;4.466;2023-07-29T14:33:47;25.90;99.90
25973;DHT22;13765;51.166;4.466;2023-07-29T14:36:18;26.20;99.90
25973;DHT22;13765;51.166;4.466;2023-07-29T14:38:44;26.30;99.90
25973;DHT22;13765;51.166;4.466;2023-07-29T14:41:09;26.30;99.90
25973;DHT22;13765;51.166;4.466;2023-07-29T14:43:35;25.90;99.90
25973;DHT22;13765;51.166;4.466;2023-07-29T14:46:03;25.60;99.90
25973;DHT22;13765;51.166;4.466;2023-07-29T14:48:29;25.30;99.90
25973;DHT22;13765;51.166;4.466;2023-07-29T14:50:55;25.00;99.90
25973;DHT22;13765;51.166;4.466;2023-07-29T14:53:22;25.20;99.90
25973;DHT22;13765;51.166;4.466;2023-07-29T14:55:48;25.20;99.90
25973;DHT22;13765;51.166;4.466;2023-07-29T14:58:19;25.30;99.90
25973;DHT22;13765;51.166;4.466;2023-07-29T15:00:44;25.30;99.90
25973;DHT22;13765;51.166;4.466;2023-07-29T15:03:10;25.30;99.90
25973;DHT22;13765;51.166;4.466;2023-07-29T15:05:35;25.50;99.90
25973;DHT22;13765;51.166;4.466;2023-07-29T15:08:01;25.70;99.90
25973;DHT22;13765;51.166;4.466;2023-07-29T15:10:29;26.00;99.90
25973;DHT22;13765;51.166;4.466;2023-07-29T15:12:54;26.00;99.90
25973;DHT22;13765;51.166;4.466;2023-07-29T15:15:20;26.00;99.90
25973;DHT22;13765;51.166;4.466;2023-07-29T15:17:46;25.80;99.90
25973;DHT22;13765;51.166;4.466;2023-07-29T15:20:11;25.80;99.90
25973;DHT22;13765;51.166;4.466;2023-07-29T15:22:37;25.90;99.90
25973;DHT22;13765;51.166;4.466;2023-07-29T15:25:07;25.90;99.90
25973;DHT22;13765;51.166;4.466;2023-07-29T15:27:33;25.60;99.90
25973;DHT22;13765;51.166;4.466;2023-07-29T15:29:59;25.60;99.90
25973;DHT22;13765;51.166;4.466;2023-07-29T15:32:24;25.60;99.90
25973;DHT22;13765;51.166;4.466;2023-07-29T15:34:55;25.60;99.90
25973;DHT22;13765;51.166;4.466;2023-07-29T15:37:21;25.60;99.90
25973;DHT22;13765;51.166;4.466;2023-07-29T15:39:49;25.20;99.90
25973;DHT22;13765;51.166;4.466;2023-07-29T15:42:14;24.90;99.90
25973;DHT22;13765;51.166;4.466;2023-07-29T15:44:40;25.00;99.90
25973;DHT22;13765;51.166;4.466;2023-07-29T15:47:06;25.20;99.90
25973;DHT22;13765;51.166;4.466;2023-07-29T15:49:33;25.20;99.90
25973;DHT22;13765;51.166;4.466;2023-07-29T15:52:01;25.30;99.90
25973;DHT22;13765;51.166;4.466;2023-07-29T15:54:27;25.40;99.90